sensor_id;sensor_type;location;lat;lon;timestamp;P1;durP1;ratioP1;P2;durP2;ratioP2
3337;SDS011;1682;49.286;10.788;2023-08-31T00:00:44;9.23;;;5.27;;
3337;SDS011;1682;49.286;10.788;2023-08-31T00:03:31;4.80;;;4.40;;
3337;SDS011;1682;49.286;10.788;2023-08-31T00:06:19;4.20;;;3.87;;
3337;SDS011;1682;49.286;10.788;2023-08-31T00:09:07;5.40;;;4.87;;
3337;SDS011;1682;49.286;10.788;2023-08-31T00:11:55;4.57;;;4.00;;
3337;SDS011;1682;49.286;10.788;2023-08-31T00:14:44;5.07;;;4.67;;
3337;SDS011;1682;49.286;10.788;2023-08-31T00:17:31;3.70;;;3.40;;
3337;SDS011;1682;49.286;10.788;2023-08-31T00:20:19;8.90;;;6.27;;
3337;SDS011;1682;49.286;10.788;2023-08-31T00:23:07;12.30;;;9.20;;
3337;SDS011;1682;49.286;10.788;2023-08-31T00:25:54;4.30;;;3.90;;
3337;SDS011;1682;49.286;10.788;2023-08-31T00:28:42;5.87;;;4.60;;
3337;SDS011;1682;49.286;10.788;2023-08-31T00:31:31;5.50;;;3.93;;
3337;SDS011;1682;49.286;10.788;2023-08-31T00:34:19;5.77;;;5.10;;
3337;SDS011;1682;49.286;10.788;2023-08-31T00:37:06;5.60;;;5.10;;
3337;SDS011;1682;49.286;10.788;2023-08-31T00:39:54;4.13;;;3.83;;
3337;SDS011;1682;49.286;10.788;2023-08-31T00:42:41;4.20;;;3.70;;
3337;SDS011;1682;49.286;10.788;2023-08-31T00:45:29;4.13;;;3.73;;
3337;SDS011;1682;49.286;10.788;2023-08-31T00:48:18;4.00;;;3.70;;
3337;SDS011;1682;49.286;10.788;2023-08-31T00:51:05;5.03;;;4.60;;
3337;SDS011;1682;49.286;10.788;2023-08-31T00:53:53;4.70;;;4.20;;
3337;SDS011;1682;49.286;10.788;2023-08-31T00:56:40;5.27;;;4.77;;
3337;SDS011;1682;49.286;10.788;2023-08-31T00:59:28;5.40;;;4.90;;
3337;SDS011;1682;49.286;10.788;2023-08-31T01:02:17;5.83;;;4.17;;
3337;SDS011;1682;49.286;10.788;2023-08-31T01:05:11;4.90;;;4.47;;
3337;SDS011;1682;49.286;10.788;2023-08-31T01:08:03;6.33;;;4.40;;
3337;SDS011;1682;49.286;10.788;2023-08-31T01:10:55;3.97;;;3.70;;
3337;SDS011;1682;49.286;10.788;2023-08-31T01:13:47;5.20;;;4.50;;
3337;SDS011;1682;49.286;10.788;2023-08-31T01:16:38;4.40;;;4.10;;
3337;SDS011;1682;49.286;10.788;2023-08-31T01:19:30;4.20;;;3.90;;
3337;SDS011;1682;49.286;10.788;2023-08-31T01:22:25;5.97;;;4.87;;
3337;SDS011;1682;49.286;10.788;2023-08-31T01:25:16;7.70;;;4.53;;
3337;SDS011;1682;49.286;10.788;2023-08-31T01:28:03;5.43;;;4.93;;
3337;SDS011;1682;49.286;10.788;2023-08-31T01:30:51;4.27;;;3.97;;
3337;SDS011;1682;49.286;10.788;2023-08-31T01:33:38;5.13;;;4.73;;
3337;SDS011;1682;49.286;10.788;2023-08-31T01:36:28;6.90;;;4.60;;
3337;SDS011;1682;49.286;10.788;2023-08-31T01:39:17;4.40;;;4.03;;
3337;SDS011;1682;49.286;10.788;2023-08-31T01:42:07;4.80;;;3.83;;
3337;SDS011;1682;49.286;10.788;2023-08-31T01:44:55;3.40;;;3.10;;
3337;SDS011;1682;49.286;10.788;2023-08-31T01:47:43;4.47;;;4.07;;
3337;SDS011;1682;49.286;10.788;2023-08-31T01:50:30;4.40;;;4.00;;
3337;SDS011;1682;49.286;10.788;2023-08-31T01:53:18;5.70;;;4.63;;
3337;SDS011;1682;49.286;10.788;2023-08-31T01:56:05;10.47;;;4.27;;
3337;SDS011;1682;49.286;10.788;2023-08-31T01:58:54;4.60;;;4.20;;
3337;SDS011;1682;49.286;10.788;2023-08-31T02:01:42;3.63;;;3.33;;
3337;SDS011;1682;49.286;10.788;2023-08-31T02:04:29;3.97;;;3.67;;
3337;SDS011;1682;49.286;10.788;2023-08-31T02:07:17;4.40;;;4.00;;
3337;SDS011;1682;49.286;10.788;2023-08-31T02:10:04;4.77;;;4.10;;
3337;SDS011;1682;49.286;10.788;2023-08-31T02:12:52;3.63;;;3.33;;
3337;SDS011;1682;49.286;10.788;2023-08-31T02:15:41;7.30;;;4.73;;
3337;SDS011;1682;49.286;10.788;2023-08-31T02:18:28;4.57;;;4.20;;
3337;SDS011;1682;49.286;10.788;2023-08-31T02:21:16;5.20;;;4.70;;
3337;SDS011;1682;49.286;10.788;2023-08-31T02:24:05;5.60;;;5.10;;
3337;SDS011;1682;49.286;10.788;2023-08-31T02:26:53;10.17;;;5.43;;
3337;SDS011;1682;49.286;10.788;2023-08-31T02:29:40;5.73;;;5.13;;
3337;SDS011;1682;49.286;10.788;2023-08-31T02:32:29;4.93;;;4.50;;
3337;SDS011;1682;49.286;10.788;2023-08-31T02:35:17;4.53;;;4.23;;
3337;SDS011;1682;49.286;10.788;2023-08-31T02:38:04;5.40;;;4.60;;
3337;SDS011;1682;49.286;10.788;2023-08-31T02:40:52;4.47;;;4.17;;
3337;SDS011;1682;49.286;10.788;2023-08-31T02:43:39;6.03;;;4.63;;
3337;SDS011;1682;49.286;10.788;2023-08-31T02:46:27;5.07;;;4.60;;
3337;SDS011;1682;49.286;10.788;2023-08-31T02:49:16;5.13;;;4.80;;
3337;SDS011;1682;49.286;10.788;2023-08-31T02:52:03;5.57;;;4.50;;
3337;SDS011;1682;49.286;10.788;2023-08-31T02:54:51;5.80;;;5.10;;
3337;SDS011;1682;49.286;10.788;2023-08-31T02:57:38;6.00;;;4.80;;
3337;SDS011;1682;49.286;10.788;2023-08-31T03:00:26;7.93;;;4.87;;
3337;SDS011;1682;49.286;10.788;2023-08-31T03:03:13;6.80;;;4.83;;
3337;SDS011;1682;49.286;10.788;2023-08-31T03:06:02;29.37;;;15.50;;
3337;SDS011;1682;49.286;10.788;2023-08-31T03:08:50;7.10;;;6.40;;
3337;SDS011;1682;49.286;10.788;2023-08-31T03:11:37;7.80;;;7.00;;
3337;SDS011;1682;49.286;10.788;2023-08-31T03:14:25;7.90;;;7.10;;
3337;SDS011;1682;49.286;10.788;2023-08-31T03:17:12;9.73;;;7.30;;
3337;SDS011;1682;49.286;10.788;2023-08-31T03:19:59;9.73;;;8.77;;
3337;SDS011;1682;49.286;10.788;2023-08-31T03:22:50;8.07;;;6.70;;
3337;SDS011;1682;49.286;10.788;2023-08-31T03:25:37;7.20;;;6.50;;
3337;SDS011;1682;49.286;10.788;2023-08-31T03:28:25;7.53;;;6.73;;
3337;SDS011;1682;49.286;10.788;2023-08-31T03:31:12;9.37;;;7.70;;
3337;SDS011;1682;49.286;10.788;2023-08-31T03:34:00;9.50;;;7.73;;
3337;SDS011;1682;49.286;10.788;2023-08-31T03:36:47;7.80;;;6.67;;
3337;SDS011;1682;49.286;10.788;2023-08-31T03:39:37;7.83;;;7.07;;
3337;SDS011;1682;49.286;10.788;2023-08-31T03:42:26;11.50;;;9.30;;
3337;SDS011;1682;49.286;10.788;2023-08-31T03:45:14;9.03;;;8.13;;
3337;SDS011;1682;49.286;10.788;2023-08-31T03:48:01;9.70;;;7.73;;
3337;SDS011;1682;49.286;10.788;2023-08-31T03:50:49;10.60;;;8.20;;
3337;SDS011;1682;49.286;10.788;2023-08-31T03:53:37;8.40;;;7.20;;
3337;SDS011;1682;49.286;10.788;2023-08-31T03:56:26;8.93;;;6.80;;
3337;SDS011;1682;49.286;10.788;2023-08-31T03:59:13;6.77;;;6.23;;
3337;SDS011;1682;49.286;10.788;2023-08-31T04:02:01;9.40;;;7.30;;
3337;SDS011;1682;49.286;10.788;2023-08-31T04:04:49;10.80;;;9.70;;
3337;SDS011;1682;49.286;10.788;2023-08-31T04:07:36;10.67;;;9.67;;
3337;SDS011;1682;49.286;10.788;2023-08-31T04:10:24;8.47;;;7.53;;
3337;SDS011;1682;49.286;10.788;2023-08-31T04:13:13;9.80;;;7.70;;
3337;SDS011;1682;49.286;10.788;2023-08-31T04:16:00;13.10;;;10.60;;
3337;SDS011;1682;49.286;10.788;2023-08-31T04:18:48;9.20;;;8.40;;
3337;SDS011;1682;49.286;10.788;2023-08-31T04:21:37;9.37;;;7.80;;
3337;SDS011;1682;49.286;10.788;2023-08-31T04:24:25;13.30;;;8.50;;
3337;SDS011;1682;49.286;10.788;2023-08-31T04:27:14;15.10;;;8.90;;
3337;SDS011;1682;49.286;10.788;2023-08-31T04:30:03;10.40;;;9.20;;
3337;SDS011;1682;49.286;10.788;2023-08-31T04:32:50;11.23;;;8.57;;
3337;SDS011;1682;49.286;10.788;2023-08-31T04:35:38;11.80;;;8.80;;
3337;SDS011;1682;49.286;10.788;2023-08-31T04:38:25;10.40;;;8.80;;
3337;SDS011;1682;49.286;10.788;2023-08-31T04:41:13;12.40;;;9.07;;
3337;SDS011;1682;49.286;10.788;2023-08-31T04:44:01;9.27;;;8.27;;
3337;SDS011;1682;49.286;10.788;2023-08-31T04:46:50;12.87;;;9.80;;
3337;SDS011;1682;49.286;10.788;2023-08-31T04:49:37;13.60;;;9.10;;
3337;SDS011;1682;49.286;10.788;2023-08-31T04:52:25;9.80;;;8.80;;
3337;SDS011;1682;49.286;10.788;2023-08-31T04:55:12;12.83;;;10.67;;
3337;SDS011;1682;49.286;10.788;2023-08-31T04:58:00;13.67;;;9.10;;
3337;SDS011;1682;49.286;10.788;2023-08-31T05:00:48;11.97;;;9.50;;
3337;SDS011;1682;49.286;10.788;2023-08-31T05:03:37;11.60;;;9.70;;
3337;SDS011;1682;49.286;10.788;2023-08-31T05:06:24;9.87;;;8.87;;
3337;SDS011;1682;49.286;10.788;2023-08-31T05:09:12;10.77;;;9.67;;
3337;SDS011;1682;49.286;10.788;2023-08-31T05:11:59;16.07;;;9.50;;
3337;SDS011;1682;49.286;10.788;2023-08-31T05:14:47;20.23;;;8.67;;
3337;SDS011;1682;49.286;10.788;2023-08-31T05:17:34;11.70;;;8.83;;
3337;SDS011;1682;49.286;10.788;2023-08-31T05:20:23;11.90;;;8.53;;
3337;SDS011;1682;49.286;10.788;2023-08-31T05:23:11;9.63;;;8.10;;
3337;SDS011;1682;49.286;10.788;2023-08-31T05:25:58;10.97;;;9.33;;
3337;SDS011;1682;49.286;10.788;2023-08-31T05:28:46;16.50;;;9.00;;
3337;SDS011;1682;49.286;10.788;2023-08-31T05:31:34;12.57;;;10.23;;
3337;SDS011;1682;49.286;10.788;2023-08-31T05:34:22;17.50;;;12.33;;
3337;SDS011;1682;49.286;10.788;2023-08-31T05:37:11;15.80;;;10.90;;
3337;SDS011;1682;49.286;10.788;2023-08-31T05:39:59;13.60;;;9.30;;
3337;SDS011;1682;49.286;10.788;2023-08-31T05:42:47;11.70;;;9.80;;
3337;SDS011;1682;49.286;10.788;2023-08-31T05:45:34;13.03;;;11.50;;
3337;SDS011;1682;49.286;10.788;2023-08-31T05:48:22;13.60;;;11.47;;
3337;SDS011;1682;49.286;10.788;2023-08-31T05:51:09;17.77;;;10.80;;
3337;SDS011;1682;49.286;10.788;2023-08-31T05:53:58;12.40;;;10.70;;
3337;SDS011;1682;49.286;10.788;2023-08-31T05:56:45;18.20;;;10.23;;
3337;SDS011;1682;49.286;10.788;2023-08-31T05:59:33;17.43;;;10.37;;
3337;SDS011;1682;49.286;10.788;2023-08-31T06:02:20;12.60;;;10.90;;
3337;SDS011;1682;49.286;10.788;2023-08-31T06:05:08;15.20;;;10.83;;
3337;SDS011;1682;49.286;10.788;2023-08-31T06:07:57;16.87;;;11.07;;
3337;SDS011;1682;49.286;10.788;2023-08-31T06:10:46;15.63;;;10.90;;
3337;SDS011;1682;49.286;10.788;2023-08-31T06:13:34;15.27;;;10.27;;
3337;SDS011;1682;49.286;10.788;2023-08-31T06:16:21;13.80;;;8.83;;
3337;SDS011;1682;49.286;10.788;2023-08-31T06:19:09;12.63;;;10.33;;
3337;SDS011;1682;49.286;10.788;2023-08-31T06:22:00;12.00;;;9.70;;
3337;SDS011;1682;49.286;10.788;2023-08-31T06:24:48;10.67;;;9.67;;
3337;SDS011;1682;49.286;10.788;2023-08-31T06:27:39;11.60;;;9.60;;
3337;SDS011;1682;49.286;10.788;2023-08-31T06:30:26;18.80;;;9.80;;
3337;SDS011;1682;49.286;10.788;2023-08-31T06:33:14;13.60;;;10.30;;
3337;SDS011;1682;49.286;10.788;2023-08-31T06:36:03;12.87;;;10.60;;
3337;SDS011;1682;49.286;10.788;2023-08-31T06:38:51;10.53;;;9.43;;
3337;SDS011;1682;49.286;10.788;2023-08-31T06:41:38;10.93;;;8.60;;
3337;SDS011;1682;49.286;10.788;2023-08-31T06:44:27;11.77;;;9.67;;
3337;SDS011;1682;49.286;10.788;2023-08-31T06:47:15;9.70;;;8.10;;
3337;SDS011;1682;49.286;10.788;2023-08-31T06:50:03;9.43;;;8.20;;
3337;SDS011;1682;49.286;10.788;2023-08-31T06:52:50;11.50;;;8.80;;
3337;SDS011;1682;49.286;10.788;2023-08-31T06:55:38;15.33;;;8.70;;
3337;SDS011;1682;49.286;10.788;2023-08-31T06:58:25;9.00;;;7.93;;
3337;SDS011;1682;49.286;10.788;2023-08-31T07:01:14;10.03;;;8.60;;
3337;SDS011;1682;49.286;10.788;2023-08-31T07:04:01;10.03;;;8.07;;
3337;SDS011;1682;49.286;10.788;2023-08-31T07:06:49;11.20;;;8.70;;
3337;SDS011;1682;49.286;10.788;2023-08-31T07:09:37;8.50;;;6.63;;
3337;SDS011;1682;49.286;10.788;2023-08-31T07:12:25;9.10;;;7.10;;
3337;SDS011;1682;49.286;10.788;2023-08-31T07:15:13;12.43;;;7.47;;
3337;SDS011;1682;49.286;10.788;2023-08-31T07:18:02;7.20;;;6.60;;
3337;SDS011;1682;49.286;10.788;2023-08-31T07:20:50;11.43;;;8.13;;
3337;SDS011;1682;49.286;10.788;2023-08-31T07:23:37;8.33;;;6.77;;
3337;SDS011;1682;49.286;10.788;2023-08-31T07:26:24;11.30;;;7.00;;
3337;SDS011;1682;49.286;10.788;2023-08-31T07:29:12;6.67;;;6.00;;
3337;SDS011;1682;49.286;10.788;2023-08-31T07:32:00;5.57;;;5.10;;
3337;SDS011;1682;49.286;10.788;2023-08-31T07:34:49;8.93;;;5.30;;
3337;SDS011;1682;49.286;10.788;2023-08-31T07:37:37;6.47;;;5.60;;
3337;SDS011;1682;49.286;10.788;2023-08-31T07:40:24;5.10;;;4.30;;
3337;SDS011;1682;49.286;10.788;2023-08-31T07:43:12;10.13;;;6.23;;
3337;SDS011;1682;49.286;10.788;2023-08-31T07:46:00;5.40;;;4.30;;
3337;SDS011;1682;49.286;10.788;2023-08-31T07:48:47;7.53;;;4.77;;
3337;SDS011;1682;49.286;10.788;2023-08-31T07:51:37;5.40;;;4.20;;
3337;SDS011;1682;49.286;10.788;2023-08-31T07:54:25;5.80;;;4.17;;
3337;SDS011;1682;49.286;10.788;2023-08-31T07:57:12;4.90;;;4.40;;
3337;SDS011;1682;49.286;10.788;2023-08-31T08:00:00;4.37;;;3.67;;
3337;SDS011;1682;49.286;10.788;2023-08-31T08:02:47;4.30;;;3.10;;
3337;SDS011;1682;49.286;10.788;2023-08-31T08:05:35;5.23;;;3.63;;
3337;SDS011;1682;49.286;10.788;2023-08-31T08:08:24;3.83;;;3.23;;
3337;SDS011;1682;49.286;10.788;2023-08-31T08:11:11;5.90;;;3.90;;
3337;SDS011;1682;49.286;10.788;2023-08-31T08:13:59;3.37;;;3.07;;
3337;SDS011;1682;49.286;10.788;2023-08-31T08:16:46;5.30;;;4.80;;
3337;SDS011;1682;49.286;10.788;2023-08-31T08:19:34;4.13;;;3.83;;
3337;SDS011;1682;49.286;10.788;2023-08-31T08:22:21;3.20;;;2.93;;
3337;SDS011;1682;49.286;10.788;2023-08-31T08:25:10;3.20;;;2.90;;
3337;SDS011;1682;49.286;10.788;2023-08-31T08:27:57;3.97;;;2.80;;
3337;SDS011;1682;49.286;10.788;2023-08-31T08:30:45;8.73;;;3.27;;
3337;SDS011;1682;49.286;10.788;2023-08-31T08:33:32;5.30;;;3.27;;
3337;SDS011;1682;49.286;10.788;2023-08-31T08:36:20;3.17;;;2.97;;
3337;SDS011;1682;49.286;10.788;2023-08-31T08:39:07;2.70;;;2.50;;
3337;SDS011;1682;49.286;10.788;2023-08-31T08:41:57;4.10;;;2.97;;
3337;SDS011;1682;49.286;10.788;2023-08-31T08:44:45;2.77;;;2.57;;
3337;SDS011;1682;49.286;10.788;2023-08-31T08:47:33;4.23;;;2.77;;
3337;SDS011;1682;49.286;10.788;2023-08-31T08:50:20;2.33;;;2.23;;
3337;SDS011;1682;49.286;10.788;2023-08-31T08:53:08;3.70;;;3.10;;
3337;SDS011;1682;49.286;10.788;2023-08-31T08:55:56;3.77;;;2.43;;
3337;SDS011;1682;49.286;10.788;2023-08-31T08:58:45;3.07;;;2.87;;
3337;SDS011;1682;49.286;10.788;2023-08-31T09:01:33;5.07;;;2.80;;
3337;SDS011;1682;49.286;10.788;2023-08-31T09:04:22;3.20;;;2.90;;
3337;SDS011;1682;49.286;10.788;2023-08-31T09:07:10;4.40;;;3.20;;
3337;SDS011;1682;49.286;10.788;2023-08-31T09:09:58;2.33;;;2.13;;
3337;SDS011;1682;49.286;10.788;2023-08-31T09:12:46;6.80;;;2.27;;
3337;SDS011;1682;49.286;10.788;2023-08-31T09:15:42;6.23;;;2.80;;
3337;SDS011;1682;49.286;10.788;2023-08-31T09:18:30;2.80;;;2.17;;
3337;SDS011;1682;49.286;10.788;2023-08-31T09:21:18;2.43;;;2.23;;
3337;SDS011;1682;49.286;10.788;2023-08-31T09:24:06;2.73;;;2.20;;
3337;SDS011;1682;49.286;10.788;2023-08-31T09:26:56;3.60;;;3.03;;
3337;SDS011;1682;49.286;10.788;2023-08-31T09:29:44;2.70;;;2.33;;
3337;SDS011;1682;49.286;10.788;2023-08-31T09:32:33;6.10;;;2.60;;
3337;SDS011;1682;49.286;10.788;2023-08-31T09:35:21;2.10;;;1.93;;
3337;SDS011;1682;49.286;10.788;2023-08-31T09:38:08;2.07;;;1.80;;
3337;SDS011;1682;49.286;10.788;2023-08-31T09:41:00;4.63;;;3.03;;
3337;SDS011;1682;49.286;10.788;2023-08-31T09:43:50;3.53;;;2.47;;
3337;SDS011;1682;49.286;10.788;2023-08-31T09:46:38;2.50;;;2.10;;
3337;SDS011;1682;49.286;10.788;2023-08-31T09:49:27;4.03;;;2.30;;
3337;SDS011;1682;49.286;10.788;2023-08-31T09:52:15;1.40;;;1.30;;
3337;SDS011;1682;49.286;10.788;2023-08-31T09:55:04;2.47;;;1.80;;
3337;SDS011;1682;49.286;10.788;2023-08-31T09:57:52;2.03;;;1.70;;
3337;SDS011;1682;49.286;10.788;2023-08-31T10:00:40;3.40;;;2.90;;
3337;SDS011;1682;49.286;10.788;2023-08-31T10:03:27;2.10;;;1.90;;
3337;SDS011;1682;49.286;10.788;2023-08-31T10:06:16;2.57;;;2.33;;
3337;SDS011;1682;49.286;10.788;2023-08-31T10:09:04;2.80;;;1.87;;
3337;SDS011;1682;49.286;10.788;2023-08-31T10:11:55;2.53;;;2.33;;
3337;SDS011;1682;49.286;10.788;2023-08-31T10:14:42;1.93;;;1.80;;
3337;SDS011;1682;49.286;10.788;2023-08-31T10:17:31;3.07;;;2.50;;
3337;SDS011;1682;49.286;10.788;2023-08-31T10:20:19;2.30;;;2.17;;
3337;SDS011;1682;49.286;10.788;2023-08-31T10:23:08;1.80;;;1.63;;
3337;SDS011;1682;49.286;10.788;2023-08-31T10:26:02;2.40;;;2.20;;
3337;SDS011;1682;49.286;10.788;2023-08-31T10:28:52;2.77;;;2.40;;
3337;SDS011;1682;49.286;10.788;2023-08-31T10:31:40;4.43;;;2.47;;
3337;SDS011;1682;49.286;10.788;2023-08-31T10:34:34;2.03;;;1.90;;
3337;SDS011;1682;49.286;10.788;2023-08-31T10:37:22;2.73;;;2.47;;
3337;SDS011;1682;49.286;10.788;2023-08-31T10:40:11;4.53;;;3.37;;
3337;SDS011;1682;49.286;10.788;2023-08-31T10:43:13;3.20;;;2.50;;
3337;SDS011;1682;49.286;10.788;2023-08-31T10:46:01;2.50;;;2.30;;
3337;SDS011;1682;49.286;10.788;2023-08-31T10:48:49;2.33;;;2.20;;
3337;SDS011;1682;49.286;10.788;2023-08-31T10:51:38;2.80;;;2.60;;
3337;SDS011;1682;49.286;10.788;2023-08-31T10:54:26;2.80;;;2.50;;
3337;SDS011;1682;49.286;10.788;2023-08-31T10:57:14;2.97;;;2.70;;
3337;SDS011;1682;49.286;10.788;2023-08-31T11:00:03;2.03;;;1.80;;
3337;SDS011;1682;49.286;10.788;2023-08-31T11:02:51;2.50;;;2.20;;
3337;SDS011;1682;49.286;10.788;2023-08-31T11:05:49;1.90;;;1.73;;
3337;SDS011;1682;49.286;10.788;2023-08-31T11:08:37;3.63;;;2.23;;
3337;SDS011;1682;49.286;10.788;2023-08-31T11:11:25;3.00;;;1.97;;
3337;SDS011;1682;49.286;10.788;2023-08-31T11:14:14;8.47;;;2.37;;
3337;SDS011;1682;49.286;10.788;2023-08-31T11:17:02;3.73;;;2.50;;
3337;SDS011;1682;49.286;10.788;2023-08-31T11:19:50;2.30;;;2.10;;
3337;SDS011;1682;49.286;10.788;2023-08-31T11:22:38;3.67;;;2.43;;
3337;SDS011;1682;49.286;10.788;2023-08-31T11:25:26;2.90;;;2.30;;
3337;SDS011;1682;49.286;10.788;2023-08-31T11:28:14;3.10;;;2.47;;
3337;SDS011;1682;49.286;10.788;2023-08-31T11:31:03;3.97;;;2.23;;
3337;SDS011;1682;49.286;10.788;2023-08-31T11:33:50;2.93;;;1.83;;
3337;SDS011;1682;49.286;10.788;2023-08-31T11:36:38;2.63;;;1.90;;
3337;SDS011;1682;49.286;10.788;2023-08-31T11:39:26;3.67;;;2.70;;
3337;SDS011;1682;49.286;10.788;2023-08-31T11:42:13;2.30;;;2.00;;
3337;SDS011;1682;49.286;10.788;2023-08-31T11:45:01;3.17;;;2.50;;
3337;SDS011;1682;49.286;10.788;2023-08-31T11:47:51;1.83;;;1.73;;
3337;SDS011;1682;49.286;10.788;2023-08-31T11:50:40;4.50;;;2.40;;
3337;SDS011;1682;49.286;10.788;2023-08-31T11:53:28;5.03;;;2.97;;
3337;SDS011;1682;49.286;10.788;2023-08-31T11:56:16;6.73;;;3.30;;
3337;SDS011;1682;49.286;10.788;2023-08-31T11:59:06;5.60;;;1.53;;
3337;SDS011;1682;49.286;10.788;2023-08-31T12:01:54;2.80;;;1.90;;
3337;SDS011;1682;49.286;10.788;2023-08-31T12:04:45;3.07;;;1.87;;
3337;SDS011;1682;49.286;10.788;2023-08-31T12:07:32;1.87;;;1.73;;
3337;SDS011;1682;49.286;10.788;2023-08-31T12:10:26;1.90;;;1.60;;
3337;SDS011;1682;49.286;10.788;2023-08-31T12:13:13;9.30;;;6.00;;
3337;SDS011;1682;49.286;10.788;2023-08-31T12:16:01;3.77;;;2.17;;
3337;SDS011;1682;49.286;10.788;2023-08-31T12:18:49;3.93;;;2.10;;
3337;SDS011;1682;49.286;10.788;2023-08-31T12:21:38;1.80;;;1.70;;
3337;SDS011;1682;49.286;10.788;2023-08-31T12:24:26;1.60;;;1.50;;
3337;SDS011;1682;49.286;10.788;2023-08-31T12:27:13;2.50;;;1.70;;
3337;SDS011;1682;49.286;10.788;2023-08-31T12:30:01;4.40;;;1.80;;
3337;SDS011;1682;49.286;10.788;2023-08-31T12:32:49;3.03;;;2.00;;
3337;SDS011;1682;49.286;10.788;2023-08-31T12:35:37;3.70;;;1.80;;
3337;SDS011;1682;49.286;10.788;2023-08-31T12:38:26;1.60;;;1.50;;
3337;SDS011;1682;49.286;10.788;2023-08-31T12:41:14;4.90;;;1.97;;
3337;SDS011;1682;49.286;10.788;2023-08-31T12:44:01;3.00;;;2.00;;
3337;SDS011;1682;49.286;10.788;2023-08-31T12:46:50;2.20;;;2.07;;
3337;SDS011;1682;49.286;10.788;2023-08-31T12:49:37;4.10;;;1.77;;
3337;SDS011;1682;49.286;10.788;2023-08-31T12:52:24;3.97;;;2.73;;
3337;SDS011;1682;49.286;10.788;2023-08-31T12:55:13;3.23;;;1.97;;
3337;SDS011;1682;49.286;10.788;2023-08-31T12:58:01;4.10;;;2.53;;
3337;SDS011;1682;49.286;10.788;2023-08-31T13:00:49;2.13;;;1.93;;
3337;SDS011;1682;49.286;10.788;2023-08-31T13:03:38;3.03;;;2.37;;
3337;SDS011;1682;49.286;10.788;2023-08-31T13:06:26;3.07;;;2.20;;
3337;SDS011;1682;49.286;10.788;2023-08-31T13:09:14;4.70;;;2.10;;
3337;SDS011;1682;49.286;10.788;2023-08-31T13:12:03;2.20;;;1.80;;
3337;SDS011;1682;49.286;10.788;2023-08-31T13:14:50;2.17;;;1.57;;
3337;SDS011;1682;49.286;10.788;2023-08-31T13:17:37;1.70;;;1.60;;
3337;SDS011;1682;49.286;10.788;2023-08-31T13:20:25;1.60;;;1.50;;
3337;SDS011;1682;49.286;10.788;2023-08-31T13:23:12;3.73;;;2.10;;
3337;SDS011;1682;49.286;10.788;2023-08-31T13:26:00;1.40;;;1.30;;
3337;SDS011;1682;49.286;10.788;2023-08-31T13:28:49;1.83;;;1.10;;
3337;SDS011;1682;49.286;10.788;2023-08-31T13:31:37;2.05;;;1.35;;
3337;SDS011;1682;49.286;10.788;2023-08-31T13:34:24;1.45;;;1.35;;
3337;SDS011;1682;49.286;10.788;2023-08-31T13:37:12;1.40;;;1.30;;
3337;SDS011;1682;49.286;10.788;2023-08-31T13:39:59;1.93;;;1.83;;
3337;SDS011;1682;49.286;10.788;2023-08-31T13:42:52;3.00;;;2.30;;
3337;SDS011;1682;49.286;10.788;2023-08-31T13:45:43;2.00;;;1.30;;
3337;SDS011;1682;49.286;10.788;2023-08-31T13:48:31;2.28;;;1.63;;
3337;SDS011;1682;49.286;10.788;2023-08-31T13:51:18;2.90;;;1.85;;
3337;SDS011;1682;49.286;10.788;2023-08-31T13:56:53;1.48;;;1.38;;
3337;SDS011;1682;49.286;10.788;2023-08-31T13:59:40;1.33;;;1.20;;
3337;SDS011;1682;49.286;10.788;2023-08-31T14:02:29;1.90;;;1.75;;
3337;SDS011;1682;49.286;10.788;2023-08-31T14:05:17;1.90;;;1.60;;
3337;SDS011;1682;49.286;10.788;2023-08-31T14:08:05;4.50;;;2.20;;
3337;SDS011;1682;49.286;10.788;2023-08-31T14:10:52;2.40;;;1.80;;
3337;SDS011;1682;49.286;10.788;2023-08-31T14:13:42;2.50;;;1.70;;
3337;SDS011;1682;49.286;10.788;2023-08-31T14:16:31;3.00;;;2.00;;
3337;SDS011;1682;49.286;10.788;2023-08-31T14:19:23;5.30;;;4.70;;
3337;SDS011;1682;49.286;10.788;2023-08-31T14:22:10;1.90;;;1.57;;
3337;SDS011;1682;49.286;10.788;2023-08-31T14:24:58;1.53;;;1.43;;
3337;SDS011;1682;49.286;10.788;2023-08-31T14:27:46;2.10;;;1.90;;
3337;SDS011;1682;49.286;10.788;2023-08-31T14:30:35;2.77;;;2.17;;
3337;SDS011;1682;49.286;10.788;2023-08-31T14:33:23;1.80;;;1.50;;
3337;SDS011;1682;49.286;10.788;2023-08-31T14:36:13;6.10;;;2.57;;
3337;SDS011;1682;49.286;10.788;2023-08-31T14:39:01;3.10;;;1.70;;
3337;SDS011;1682;49.286;10.788;2023-08-31T14:41:48;2.90;;;2.00;;
3337;SDS011;1682;49.286;10.788;2023-08-31T14:44:36;1.50;;;1.40;;
3337;SDS011;1682;49.286;10.788;2023-08-31T14:47:23;1.60;;;1.50;;
3337;SDS011;1682;49.286;10.788;2023-08-31T14:50:11;5.13;;;2.77;;
3337;SDS011;1682;49.286;10.788;2023-08-31T14:53:00;2.60;;;2.40;;
3337;SDS011;1682;49.286;10.788;2023-08-31T14:55:50;2.40;;;1.97;;
3337;SDS011;1682;49.286;10.788;2023-08-31T14:58:37;4.83;;;2.10;;
3337;SDS011;1682;49.286;10.788;2023-08-31T15:01:25;4.30;;;2.67;;
3337;SDS011;1682;49.286;10.788;2023-08-31T15:04:14;2.20;;;2.00;;
3337;SDS011;1682;49.286;10.788;2023-08-31T15:07:02;5.93;;;2.27;;
3337;SDS011;1682;49.286;10.788;2023-08-31T15:09:51;3.30;;;2.67;;
3337;SDS011;1682;49.286;10.788;2023-08-31T15:12:38;6.03;;;3.37;;
3337;SDS011;1682;49.286;10.788;2023-08-31T15:15:26;2.80;;;2.13;;
3337;SDS011;1682;49.286;10.788;2023-08-31T15:18:13;4.13;;;2.00;;
3337;SDS011;1682;49.286;10.788;2023-08-31T15:21:01;2.10;;;1.90;;
3337;SDS011;1682;49.286;10.788;2023-08-31T15:23:49;3.57;;;2.57;;
3337;SDS011;1682;49.286;10.788;2023-08-31T15:26:38;3.33;;;2.20;;
3337;SDS011;1682;49.286;10.788;2023-08-31T15:29:25;3.43;;;2.30;;
3337;SDS011;1682;49.286;10.788;2023-08-31T15:32:13;2.30;;;2.07;;
3337;SDS011;1682;49.286;10.788;2023-08-31T15:35:01;2.50;;;1.73;;
3337;SDS011;1682;49.286;10.788;2023-08-31T15:37:48;2.70;;;2.50;;
3337;SDS011;1682;49.286;10.788;2023-08-31T15:40:37;4.13;;;2.70;;
3337;SDS011;1682;49.286;10.788;2023-08-31T15:43:27;6.40;;;3.60;;
3337;SDS011;1682;49.286;10.788;2023-08-31T15:46:15;3.13;;;2.03;;
3337;SDS011;1682;49.286;10.788;2023-08-31T15:49:04;6.87;;;2.10;;
3337;SDS011;1682;49.286;10.788;2023-08-31T15:51:52;2.57;;;2.40;;
3337;SDS011;1682;49.286;10.788;2023-08-31T15:54:40;7.13;;;2.63;;
3337;SDS011;1682;49.286;10.788;2023-08-31T15:57:27;4.33;;;3.07;;
3337;SDS011;1682;49.286;10.788;2023-08-31T16:00:16;4.17;;;2.37;;
3337;SDS011;1682;49.286;10.788;2023-08-31T16:03:07;3.23;;;2.87;;
3337;SDS011;1682;49.286;10.788;2023-08-31T16:05:56;3.10;;;2.40;;
3337;SDS011;1682;49.286;10.788;2023-08-31T16:08:44;5.43;;;2.13;;
3337;SDS011;1682;49.286;10.788;2023-08-31T16:11:31;3.87;;;2.77;;
3337;SDS011;1682;49.286;10.788;2023-08-31T16:14:19;3.00;;;2.67;;
3337;SDS011;1682;49.286;10.788;2023-08-31T16:17:08;3.20;;;1.83;;
3337;SDS011;1682;49.286;10.788;2023-08-31T16:19:56;3.30;;;2.80;;
3337;SDS011;1682;49.286;10.788;2023-08-31T16:22:44;3.50;;;2.60;;
3337;SDS011;1682;49.286;10.788;2023-08-31T16:25:31;4.50;;;2.27;;
3337;SDS011;1682;49.286;10.788;2023-08-31T16:28:19;6.00;;;2.70;;
3337;SDS011;1682;49.286;10.788;2023-08-31T16:31:06;2.20;;;2.07;;
3337;SDS011;1682;49.286;10.788;2023-08-31T16:33:55;3.33;;;2.20;;
3337;SDS011;1682;49.286;10.788;2023-08-31T16:36:43;2.43;;;1.90;;
3337;SDS011;1682;49.286;10.788;2023-08-31T16:39:31;3.10;;;2.13;;
3337;SDS011;1682;49.286;10.788;2023-08-31T16:42:19;2.93;;;2.10;;
3337;SDS011;1682;49.286;10.788;2023-08-31T16:45:07;5.63;;;5.23;;
3337;SDS011;1682;49.286;10.788;2023-08-31T16:47:55;4.93;;;2.67;;
3337;SDS011;1682;49.286;10.788;2023-08-31T16:50:43;3.60;;;3.00;;
3337;SDS011;1682;49.286;10.788;2023-08-31T16:53:31;3.63;;;2.40;;
3337;SDS011;1682;49.286;10.788;2023-08-31T16:56:19;2.97;;;2.03;;
3337;SDS011;1682;49.286;10.788;2023-08-31T16:59:07;3.93;;;2.47;;
3337;SDS011;1682;49.286;10.788;2023-08-31T17:01:54;8.10;;;2.77;;
3337;SDS011;1682;49.286;10.788;2023-08-31T17:04:42;2.97;;;2.77;;
3337;SDS011;1682;49.286;10.788;2023-08-31T17:07:30;2.20;;;2.10;;